Time;durP1;ratioP1;P1;durP2;ratioP2;P2;SDS_P1;SDS_P2;PMS_P1;PMS_P2;Temp;Humidity;BMP_temperature;BMP_pressure;BME280_temperature;BME280_humidity;BME280_pressure;Samples;Min_cycle;Max_cycle;Signal;HPM_P1;HPM_P2
2022/11/05 00:09:32;;;;;;;20.38;7.07;;;;;;;5.65;100.00;101344.69;5043362;28;20036;-66
2022/11/05 00:17:45;;;;;;;20.17;7.55;;;;;;;5.33;100.00;101352.38;5041212;28;20068;-66
2022/11/05 00:20:14;;;;;;;22.60;8.05;;;;;;;5.26;100.00;101353.91;5045856;28;20021;-65
2022/11/05 00:25:23;;;;;;;20.77;7.88;;;;;;;5.14;100.00;101351.78;5044187;28;20114;-66
2022/11/05 00:27:50;;;;;;;19.92;7.90;;;;;;;5.06;100.00;101366.31;5043102;28;20021;-67
2022/11/05 00:30:21;;;;;;;22.00;8.52;;;;;;;4.96;100.00;101364.22;5045028;28;20055;-71
2022/11/05 00:32:47;;;;;;;21.30;8.07;;;;;;;4.81;100.00;101361.94;5043488;28;20025;-70
2022/11/05 00:35:14;;;;;;;19.80;7.97;;;;;;;4.80;100.00;101371.53;5045259;28;20017;-72
2022/11/05 00:37:40;;;;;;;20.15;7.47;;;;;;;4.72;100.00;101373.00;5042516;28;20459;-71
2022/11/05 00:40:06;;;;;;;19.30;7.45;;;;;;;4.71;100.00;101381.66;5045619;28;20048;-71
2022/11/05 00:45:15;;;;;;;18.40;6.53;;;;;;;4.54;100.00;101384.56;5040820;28;20065;-71
2022/11/05 00:50:26;;;;;;;19.88;7.40;;;;;;;4.45;100.00;101393.78;5044583;28;20392;-71
2022/11/05 00:52:56;;;;;;;20.17;8.23;;;;;;;4.38;100.00;101397.88;5043680;28;20029;-72
2022/11/05 00:55:42;;;;;;;20.70;7.80;;;;;;;4.32;100.00;101402.88;5043447;28;20029;-72
2022/11/05 00:58:11;;;;;;;20.63;8.05;;;;;;;4.33;100.00;101397.72;5038445;28;20032;-71
2022/11/05 01:00:39;;;;;;;19.88;8.40;;;;;;;4.29;100.00;101401.03;5038290;28;20057;-72
2022/11/05 01:03:11;;;;;;;20.15;9.02;;;;;;;4.25;100.00;101408.72;5037611;28;20079;-72
2022/11/05 01:05:39;;;;;;;20.80;9.38;;;;;;;4.21;100.00;101412.03;5037661;28;20045;-71
2022/11/05 01:08:05;;;;;;;20.17;9.20;;;;;;;4.18;100.00;101411.09;5037719;28;20483;-72
2022/11/05 01:10:31;;;;;;;22.45;10.15;;;;;;;4.18;100.00;101405.88;5044496;28;20032;-72
2022/11/05 01:12:56;;;;;;;20.58;8.65;;;;;;;4.18;100.00;101412.84;5042612;28;20037;-70
2022/11/05 01:15:22;;;;;;;20.55;9.45;;;;;;;4.18;100.00;101411.09;5043308;28;20499;-71
2022/11/05 01:17:49;;;;;;;21.48;9.98;;;;;;;4.15;100.00;101415.31;5043816;28;20056;-71
2022/11/05 01:20:15;;;;;;;22.40;10.57;;;;;;;4.19;100.00;101425.97;5042160;28;20025;-72
2022/11/05 01:22:40;;;;;;;21.50;9.95;;;;;;;4.23;100.00;101428.72;5044689;28;20066;-72
2022/11/05 01:25:06;;;;;;;22.38;10.60;;;;;;;4.40;100.00;101432.88;5041487;28;20021;-72
2022/11/05 01:27:32;;;;;;;22.15;11.43;;;;;;;4.43;100.00;101433.00;5044290;28;20044;-72
2022/11/05 01:29:57;;;;;;;23.25;11.32;;;;;;;4.41;100.00;101434.66;5042362;28;20025;-72
2022/11/05 01:32:22;;;;;;;23.25;11.52;;;;;;;4.46;100.00;101437.47;5043025;28;20028;-71
2022/11/05 01:34:48;;;;;;;23.80;11.30;;;;;;;4.42;100.00;101428.59;5043856;28;20036;-73
2022/11/05 01:37:13;;;;;;;24.77;11.65;;;;;;;4.38;100.00;101444.13;5041777;28;20033;-70
2022/11/05 01:39:38;;;;;;;23.35;11.02;;;;;;;4.38;100.00;101445.00;5043584;28;20515;-72
2022/11/05 01:42:13;;;;;;;24.85;11.20;;;;;;;4.35;100.00;101437.94;5041519;28;20468;-72
2022/11/05 01:44:57;;;;;;;23.10;10.75;;;;;;;4.33;100.00;101442.22;5037909;28;20056;-72
2022/11/05 01:47:31;;;;;;;23.55;11.02;;;;;;;4.39;100.00;101444.19;5041549;28;20038;-70
2022/11/05 01:50:01;;;;;;;24.50;11.05;;;;;;;4.40;100.00;101445.97;5042315;28;20354;-72
2022/11/05 01:52:30;;;;;;;24.60;11.02;;;;;;;4.41;100.00;101439.88;5043107;28;20068;-72
2022/11/05 01:54:57;;;;;;;23.02;11.30;;;;;;;4.39;100.00;101443.31;5042077;28;20020;-66
2022/11/05 01:57:22;;;;;;;23.48;10.27;;;;;;;4.35;100.00;101439.66;5042914;28;20057;-66
2022/11/05 01:59:52;;;;;;;23.75;10.57;;;;;;;4.31;100.00;101437.75;5043449;28;20064;-66
2022/11/05 02:02:18;;;;;;;23.83;11.20;;;;;;;4.30;100.00;101433.38;5041854;28;20032;-66
2022/11/05 02:04:48;;;;;;;24.45;10.95;;;;;;;4.33;100.00;101436.09;5043737;28;20029;-65
2022/11/05 02:07:13;;;;;;;22.45;10.45;;;;;;;4.27;100.00;101422.78;5040978;28;20054;-66
2022/11/05 02:09:53;;;;;;;23.00;10.73;;;;;;;4.25;100.00;101430.56;5044162;28;20372;-66
2022/11/05 02:12:20;;;;;;;23.98;11.35;;;;;;;4.24;100.00;101427.88;5040048;28;20389;-66
2022/11/05 02:14:45;;;;;;;23.63;10.82;;;;;;;4.23;100.00;101423.47;5043445;28;20025;-66
2022/11/05 02:17:22;;;;;;;24.42;10.88;;;;;;;4.19;100.00;101423.38;5040850;28;20030;-66
2022/11/05 02:20:22;;;;;;;24.13;11.52;;;;;;;4.17;100.00;101424.13;5043322;28;20091;-66
2022/11/05 02:23:20;;;;;;;23.75;11.32;;;;;;;4.11;100.00;101419.53;5039269;28;20504;-65
2022/11/05 02:26:06;;;;;;;23.75;11.82;;;;;;;4.11;100.00;101430.00;5038718;28;20140;-65
2022/11/05 02:29:00;;;;;;;23.98;12.25;;;;;;;4.09;100.00;101429.06;5041280;28;20127;-66
2022/11/05 02:31:53;;;;;;;26.80;13.13;;;;;;;4.07;100.00;101430.72;5041434;28;20072;-66
2022/11/05 02:34:40;;;;;;;24.45;12.98;;;;;;;4.08;100.00;101423.75;5039461;28;20037;-66
2022/11/05 02:37:13;;;;;;;25.13;13.80;;;;;;;4.01;100.00;101418.28;5036502;28;20472;-66
2022/11/05 02:39:50;;;;;;;25.45;13.88;;;;;;;4.01;100.00;101426.13;5037089;28;20030;-66
2022/11/05 02:42:43;;;;;;;24.77;13.55;;;;;;;3.99;100.00;101424.25;5038789;28;20358;-66
2022/11/05 02:45:33;;;;;;;27.77;14.68;;;;;;;3.96;100.00;101426.75;5037264;28;20108;-66
2022/11/05 02:48:38;;;;;;;27.60;15.02;;;;;;;3.95;100.00;101427.63;5042220;28;20029;-66
2022/11/05 02:51:15;;;;;;;28.05;15.82;;;;;;;3.93;100.00;101424.94;5044663;28;20384;-66
2022/11/05 02:53:47;;;;;;;28.58;15.18;;;;;;;3.92;100.00;101422.25;5040907;28;20436;-65
2022/11/05 02:56:25;;;;;;;28.25;16.17;;;;;;;3.89;100.00;101424.72;5046327;28;20099;-66
2022/11/05 02:58:51;;;;;;;27.85;15.95;;;;;;;3.86;100.00;101427.22;5046045;28;20021;-66
2022/11/05 03:01:16;;;;;;;28.50;16.23;;;;;;;3.83;100.00;101423.66;5046689;28;20100;-66
2022/11/05 03:03:46;;;;;;;28.92;16.38;;;;;;;3.82;100.00;101421.88;5043948;28;20108;-66
2022/11/05 03:06:33;;;;;;;28.90;16.60;;;;;;;3.77;100.00;101415.56;5047292;28;20090;-66
2022/11/05 03:09:11;;;;;;;29.35;17.25;;;;;;;3.77;100.00;101427.72;5046327;28;20476;-66
2022/11/05 03:12:15;;;;;;;30.15;17.65;;;;;;;3.73;100.00;101420.59;5040106;28;20040;-66
2022/11/05 03:14:51;;;;;;;29.98;17.42;;;;;;;3.69;100.00;101422.19;5041420;28;20404;-66
2022/11/05 03:17:35;;;;;;;29.00;17.60;;;;;;;3.67;100.00;101411.69;5044281;28;20095;-66
2022/11/05 03:20:16;;;;;;;31.52;17.88;;;;;;;3.58;100.00;101420.84;5044431;28;20045;-66
2022/11/05 03:22:48;;;;;;;30.23;18.77;;;;;;;3.57;100.00;101425.19;5038474;28;20488;-66
2022/11/05 03:25:20;;;;;;;31.77;18.88;;;;;;;3.59;100.00;101420.91;5044560;28;20045;-66
2022/11/05 03:27:51;;;;;;;30.40;19.15;;;;;;;3.59;100.00;101425.25;5041955;28;20500;-66
2022/11/05 03:30:17;;;;;;;30.85;19.17;;;;;;;3.59;100.00;101427.88;5026959;28;20052;-66
2022/11/05 03:32:49;;;;;;;32.15;21.23;;;;;;;3.58;100.00;101424.38;5041818;28;20042;-66
2022/11/05 03:35:23;;;;;;;31.17;21.08;;;;;;;3.61;100.00;101434.03;5043953;28;20682;-66
2022/11/05 03:37:53;;;;;;;32.67;21.90;;;;;;;3.59;100.00;101427.88;5042174;28;20385;-66
2022/11/05 03:40:21;;;;;;;33.15;22.58;;;;;;;3.60;100.00;101430.56;5043728;28;20037;-66
2022/11/05 03:42:51;;;;;;;33.45;23.27;;;;;;;3.59;100.00;101433.09;5042057;28;20026;-71
2022/11/05 03:45:27;;;;;;;34.20;24.73;;;;;;;3.59;100.00;101430.50;5043624;28;20041;-70
2022/11/05 03:47:56;;;;;;;35.13;24.55;;;;;;;3.56;100.00;101431.25;5042430;28;20041;-71
2022/11/05 03:50:48;;;;;;;33.60;24.88;;;;;;;3.52;100.00;101423.22;5043047;28;20033;-71
2022/11/05 03:53:20;;;;;;;36.70;25.60;;;;;;;3.51;100.00;101424.03;5040409;28;20075;-71
2022/11/05 03:56:12;;;;;;;37.03;25.67;;;;;;;3.48;100.00;101430.94;5045952;28;20551;-70
2022/11/05 03:58:42;;;;;;;38.08;27.17;;;;;;;3.45;100.00;101435.13;5039562;28;20029;-72
2022/11/05 04:01:08;;;;;;;39.30;27.77;;;;;;;3.51;100.00;101438.03;5039538;28;20104;-71
2022/11/05 04:03:35;;;;;;;38.47;28.02;;;;;;;3.49;100.00;101430.13;5044942;28;20438;-72
2022/11/05 04:14:14;;;;;;;37.65;28.88;;;;;;;3.39;100.00;101442.69;5046218;28;20079;-71
2022/11/05 04:24:51;;;;;;;42.10;30.00;;;;;;;3.29;100.00;101450.16;5042005;28;20604;-72
2022/11/05 04:27:16;;;;;;;40.65;29.75;;;;;;;3.18;100.00;101451.41;5044989;28;20036;-72
2022/11/05 04:32:25;;;;;;;39.78;30.15;;;;;;;3.12;100.00;101454.63;5044285;28;20128;-72
2022/11/05 04:34:51;;;;;;;38.70;28.65;;;;;;;3.10;100.00;101453.69;5043755;28;20104;-72
2022/11/05 04:37:16;;;;;;;40.75;30.88;;;;;;;3.14;100.00;101450.34;5044918;28;20025;-72
2022/11/05 04:39:41;;;;;;;42.80;31.98;;;;;;;3.16;100.00;101453.06;5042671;28;20469;-71
2022/11/05 04:42:07;;;;;;;42.03;32.35;;;;;;;3.12;100.00;101451.13;5045482;28;20063;-71
2022/11/05 04:44:32;;;;;;;43.08;32.38;;;;;;;3.13;100.00;101458.13;5042871;28;20057;-71
2022/11/05 04:46:57;;;;;;;43.17;32.67;;;;;;;3.17;100.00;101448.72;5044279;28;20031;-71
2022/11/05 04:49:23;;;;;;;43.35;31.83;;;;;;;3.20;100.00;101469.75;5044173;28;20029;-71
2022/11/05 04:51:48;;;;;;;44.22;33.13;;;;;;;3.20;100.00;101459.31;5043074;28;20075;-72
2022/11/05 04:54:13;;;;;;;43.83;32.25;;;;;;;3.22;100.00;101466.38;5045012;28;20040;-71
2022/11/05 04:56:38;;;;;;;43.72;33.50;;;;;;;3.27;100.00;101466.59;5042111;28;20541;-72
2022/11/05 04:59:04;;;;;;;43.72;32.67;;;;;;;3.23;100.00;101475.13;5044840;28;20458;-71
2022/11/05 05:01:29;;;;;;;42.83;33.53;;;;;;;3.30;100.00;101477.16;5041455;28;20041;-71
2022/11/05 05:03:54;;;;;;;42.15;32.45;;;;;;;3.28;100.00;101478.84;5043818;28;20064;-72
2022/11/05 05:06:20;;;;;;;43.45;33.15;;;;;;;3.25;100.00;101478.72;5044107;28;20064;-72
2022/11/05 05:08:47;;;;;;;45.72;33.65;;;;;;;3.28;100.00;101482.34;5042146;28;20065;-72
2022/11/05 05:11:14;;;;;;;43.80;33.70;;;;;;;3.30;100.00;101488.50;5044927;28;20029;-72
2022/11/05 05:13:40;;;;;;;43.95;33.25;;;;;;;3.34;100.00;101466.03;5041639;28;20029;-66
2022/11/05 05:16:07;;;;;;;42.30;32.33;;;;;;;3.30;100.00;101474.56;5044686;28;20380;-66
2022/11/05 05:18:34;;;;;;;42.50;32.83;;;;;;;3.37;100.00;101473.13;5041855;28;20029;-66
2022/11/05 05:23:46;;;;;;;43.13;32.38;;;;;;;3.30;100.00;101482.41;5038830;28;20511;-66
2022/11/05 05:26:11;;;;;;;42.38;31.85;;;;;;;3.26;100.00;101483.09;5044883;28;20021;-66
2022/11/05 05:28:36;;;;;;;44.30;32.97;;;;;;;3.29;100.00;101488.44;5041197;28;20094;-66
2022/11/05 05:31:02;;;;;;;44.40;32.35;;;;;;;3.24;100.00;101490.84;5044076;28;20033;-66
2022/11/05 05:33:27;;;;;;;42.92;32.08;;;;;;;3.25;100.00;101494.38;5042783;28;20060;-67
2022/11/05 05:35:55;;;;;;;43.00;32.42;;;;;;;3.21;100.00;101492.47;5041198;28;20470;-66
2022/11/05 05:38:21;;;;;;;43.03;32.28;;;;;;;3.12;100.00;101491.22;5043517;28;20025;-66
2022/11/05 05:40:46;;;;;;;42.10;32.25;;;;;;;3.14;100.00;101491.28;5041694;28;20021;-66
2022/11/05 05:43:11;;;;;;;43.63;33.03;;;;;;;3.18;100.00;101494.94;5044391;28;20025;-66
2022/11/05 05:45:37;;;;;;;45.95;33.00;;;;;;;3.23;100.00;101501.25;5041519;28;20018;-66
2022/11/05 05:48:03;;;;;;;42.58;33.20;;;;;;;3.29;100.00;101493.66;5043671;28;20096;-66
2022/11/05 05:50:28;;;;;;;44.03;32.75;;;;;;;3.30;100.00;101498.06;5041263;28;20025;-66
2022/11/05 05:52:53;;;;;;;41.60;31.40;;;;;;;3.30;100.00;101504.19;5042412;28;20044;-66
2022/11/05 05:55:19;;;;;;;42.38;32.22;;;;;;;3.30;100.00;101498.06;5043387;28;20060;-66
2022/11/05 05:57:45;;;;;;;41.80;31.38;;;;;;;3.25;100.00;101504.84;5041558;28;20029;-72
2022/11/05 06:00:13;;;;;;;40.78;29.92;;;;;;;3.23;100.00;101501.25;5044210;28;20029;-73
2022/11/05 06:02:39;;;;;;;44.15;30.52;;;;;;;3.22;100.00;101504.66;5037170;28;20091;-71
2022/11/05 06:05:05;;;;;;;43.08;30.10;;;;;;;3.16;100.00;101500.09;5044232;28;20108;-72
2022/11/05 06:07:30;;;;;;;42.40;31.05;;;;;;;3.20;100.00;101502.00;5041357;28;20056;-72
2022/11/05 06:09:55;;;;;;;41.20;29.88;;;;;;;3.20;100.00;101493.28;5042467;28;20052;-72
2022/11/05 06:12:21;;;;;;;40.40;29.88;;;;;;;3.20;100.00;101488.03;5043167;28;20148;-72
2022/11/05 06:14:46;;;;;;;42.20;30.67;;;;;;;3.22;100.00;101505.59;5040906;28;20112;-71
2022/11/05 06:17:12;;;;;;;39.80;28.83;;;;;;;3.20;100.00;101495.88;5044356;28;20055;-71
2022/11/05 06:19:37;;;;;;;39.53;29.15;;;;;;;3.17;100.00;101500.97;5041144;28;20385;-72
2022/11/05 06:22:02;;;;;;;42.53;29.98;;;;;;;3.14;100.00;101502.59;5042021;28;20064;-74
2022/11/05 06:24:28;;;;;;;39.78;29.88;;;;;;;3.14;100.00;101502.59;5042246;28;20039;-71
2022/11/05 06:26:53;;;;;;;39.92;29.45;;;;;;;3.12;100.00;101504.28;5044910;28;20445;-72
2022/11/05 06:29:18;;;;;;;38.95;28.83;;;;;;;3.14;100.00;101507.84;5047236;28;20467;-70
2022/11/05 06:31:44;;;;;;;40.00;28.98;;;;;;;3.11;100.00;101512.03;5045095;28;20052;-72
2022/11/05 06:34:09;;;;;;;40.90;28.75;;;;;;;3.10;100.00;101511.16;5046692;28;20106;-69
2022/11/05 06:36:34;;;;;;;39.53;29.25;;;;;;;3.10;100.00;101505.94;5045099;28;20039;-71
2022/11/05 06:38:59;;;;;;;38.78;28.60;;;;;;;3.07;100.00;101511.03;5046910;28;20021;-70
2022/11/05 06:41:25;;;;;;;39.60;27.90;;;;;;;3.08;100.00;101512.78;5046016;28;20021;-71
2022/11/05 06:43:50;;;;;;;40.25;28.75;;;;;;;3.10;100.00;101515.47;5045270;28;20087;-72
2022/11/05 06:46:15;;;;;;;39.20;28.52;;;;;;;3.08;100.00;101511.91;5047392;28;20025;-70
2022/11/05 06:48:41;;;;;;;39.88;28.17;;;;;;;3.06;100.00;101510.91;5044399;28;20033;-72
2022/11/05 06:51:07;;;;;;;38.25;26.63;;;;;;;3.08;100.00;101515.41;5047337;28;20064;-72
2022/11/05 06:53:33;;;;;;;39.58;27.23;;;;;;;3.11;100.00;101518.16;5044995;28;20529;-72
2022/11/05 06:56:04;;;;;;;39.28;28.17;;;;;;;3.13;100.00;101511.28;5046312;28;20036;-71
2022/11/05 06:58:30;;;;;;;38.10;27.30;;;;;;;3.12;100.00;101519.06;5045254;28;20115;-72
2022/11/05 07:00:59;;;;;;;39.88;28.27;;;;;;;3.11;100.00;101518.16;5045819;28;20096;-72
2022/11/05 07:03:25;;;;;;;38.05;27.88;;;;;;;3.14;100.00;101523.50;5043852;28;20139;-69
2022/11/05 07:05:50;;;;;;;37.40;26.45;;;;;;;3.11;100.00;101525.09;5047439;28;20495;-74
2022/11/05 07:08:16;;;;;;;38.67;27.58;;;;;;;3.09;100.00;101538.09;5044947;28;20021;-71
2022/11/05 07:10:41;;;;;;;38.70;27.52;;;;;;;3.10;100.00;101537.28;5055127;28;20033;-70
2022/11/05 07:13:07;;;;;;;38.20;26.15;;;;;;;3.13;100.00;101542.66;5054642;28;20033;-70
2022/11/05 07:15:32;;;;;;;39.15;27.85;;;;;;;3.19;100.00;101535.91;5051423;28;20026;-66
2022/11/05 07:17:59;;;;;;;40.58;27.83;;;;;;;3.23;100.00;101546.59;5050859;28;20034;-69
2022/11/05 07:20:25;;;;;;;38.08;27.88;;;;;;;3.25;100.00;101544.03;5051998;28;20017;-67
2022/11/05 07:22:50;;;;;;;38.72;27.65;;;;;;;3.27;100.00;101539.75;5052161;28;20025;-66
2022/11/05 07:25:15;;;;;;;38.30;26.88;;;;;;;3.30;100.00;101540.78;5051610;28;20112;-71
2022/11/05 07:27:41;;;;;;;39.80;27.83;;;;;;;3.34;100.00;101548.78;5051481;28;20025;-69
2022/11/05 07:30:08;;;;;;;39.63;27.23;;;;;;;3.38;100.00;101554.22;5047050;28;20032;-66
2022/11/05 07:32:40;;;;;;;37.47;27.23;;;;;;;3.43;100.00;101551.81;5051330;28;20037;-65
2022/11/05 07:35:07;;;;;;;38.60;27.35;;;;;;;3.46;100.00;101555.44;5049387;28;20384;-63
2022/11/05 07:37:43;;;;;;;37.30;26.83;;;;;;;3.53;100.00;101555.72;5049321;28;20051;-63
2022/11/05 07:40:10;;;;;;;37.13;26.05;;;;;;;3.57;100.00;101555.94;5048007;28;20028;-63
2022/11/05 07:42:35;;;;;;;38.08;26.40;;;;;;;3.67;100.00;101562.47;5048579;28;20025;-63
2022/11/05 07:45:00;;;;;;;36.72;26.02;;;;;;;3.73;100.00;101557.50;5048279;28;20044;-65
2022/11/05 07:47:26;;;;;;;37.05;24.92;;;;;;;3.77;100.00;101566.34;5048563;28;20400;-63
2022/11/05 07:49:51;;;;;;;35.50;24.75;;;;;;;3.82;100.00;101563.13;5045512;28;20025;-63
2022/11/05 07:52:17;;;;;;;36.95;26.10;;;;;;;3.91;100.00;101567.84;5044470;28;20072;-63
2022/11/05 07:54:44;;;;;;;36.28;24.77;;;;;;;4.01;100.00;101563.91;5048233;28;20021;-63
2022/11/05 07:57:10;;;;;;;33.97;24.23;;;;;;;4.11;100.00;101565.19;5048517;28;20393;-65
2022/11/05 07:59:35;;;;;;;34.97;23.90;;;;;;;4.19;100.00;101566.41;5040831;28;20041;-64
2022/11/05 08:02:00;;;;;;;35.33;23.80;;;;;;;4.32;100.00;101576.53;5039387;28;20879;-65
2022/11/05 08:04:25;;;;;;;34.40;23.42;;;;;;;4.42;100.00;101566.47;5047132;28;20056;-63
2022/11/05 08:06:51;;;;;;;33.28;22.63;;;;;;;4.51;100.00;101562.50;5049895;28;20068;-64
2022/11/05 08:09:16;;;;;;;32.10;21.55;;;;;;;4.62;100.00;101565.56;5043935;28;20398;-70
2022/11/05 08:11:41;;;;;;;31.98;20.27;;;;;;;4.78;100.00;101567.06;5046659;28;20468;-64
2022/11/05 08:14:07;;;;;;;31.30;20.33;;;;;;;4.86;100.00;101560.41;5046075;28;20021;-61
2022/11/05 08:16:32;;;;;;;29.83;18.98;;;;;;;4.96;100.00;101573.84;5045792;28;20056;-65
2022/11/05 08:18:57;;;;;;;31.10;18.58;;;;;;;5.05;100.00;101566.34;5044039;28;20025;-64
2022/11/05 08:21:23;;;;;;;29.63;18.40;;;;;;;5.13;100.00;101574.50;5044710;28;20035;-65
2022/11/05 08:23:48;;;;;;;28.27;18.08;;;;;;;5.24;100.00;101568.84;5044594;28;20041;-69
2022/11/05 08:26:13;;;;;;;29.27;18.08;;;;;;;5.35;100.00;101569.22;5046076;28;20084;-71
2022/11/05 08:28:39;;;;;;;29.65;18.15;;;;;;;5.48;100.00;101554.84;5047875;28;20433;-74
2022/11/05 08:31:04;;;;;;;27.95;16.35;;;;;;;5.56;100.00;101558.66;5047616;28;20373;-73
2022/11/05 08:33:30;;;;;;;28.77;16.83;;;;;;;5.67;100.00;101563.38;5044673;28;20492;-73
2022/11/05 08:35:56;;;;;;;27.05;15.90;;;;;;;5.78;100.00;101559.38;5045999;28;20104;-71
2022/11/05 08:38:21;;;;;;;27.02;16.02;;;;;;;5.93;100.00;101573.06;5043354;28;20026;-71
2022/11/05 08:40:54;;;;;;;27.50;15.73;;;;;;;6.10;100.00;101571.06;5045973;28;20442;-70
2022/11/05 08:43:20;;;;;;;25.83;14.50;;;;;;;6.25;100.00;101565.44;5042406;28;20032;-72
2022/11/05 08:45:45;;;;;;;26.17;14.68;;;;;;;6.42;100.00;101566.00;5043828;28;20025;-72
2022/11/05 08:48:13;;;;;;;25.85;14.00;;;;;;;6.50;100.00;101566.22;5043126;28;20083;-74
2022/11/05 08:50:39;;;;;;;25.45;13.48;;;;;;;6.58;100.00;101567.38;5044004;28;20480;-71
2022/11/05 08:53:05;;;;;;;25.80;14.48;;;;;;;6.61;100.00;101564.84;5043193;28;20044;-74
2022/11/05 08:55:31;;;;;;;25.10;12.88;;;;;;;6.71;100.00;101570.38;5042702;28;20026;-72
2022/11/05 08:57:57;;;;;;;24.92;13.55;;;;;;;6.83;100.00;101568.16;5045542;28;20025;-72
2022/11/05 09:00:23;;;;;;;24.90;13.40;;;;;;;6.84;100.00;101572.56;5041909;28;20021;-71
2022/11/05 09:02:49;;;;;;;24.33;12.75;;;;;;;6.94;100.00;101573.75;5043715;28;20075;-74
2022/11/05 09:05:14;;;;;;;23.85;12.70;;;;;;;7.08;100.00;101564.53;5042799;28;20021;-70
2022/11/05 09:07:39;;;;;;;24.33;12.70;;;;;;;7.31;100.00;101573.13;5043262;28;20052;-69
2022/11/05 09:10:05;;;;;;;24.33;12.30;;;;;;;7.50;100.00;101565.75;5044396;28;20039;-67
2022/11/05 09:12:30;;;;;;;23.42;12.00;;;;;;;7.59;100.00;101579.16;5042073;28;20509;-71
2022/11/05 09:14:56;;;;;;;23.73;11.85;;;;;;;7.73;100.00;101574.28;5044916;28;20028;-68
2022/11/05 09:17:21;;;;;;;23.40;10.85;;;;;;;7.82;100.00;101578.91;5041535;28;20033;-70
2022/11/05 09:19:47;;;;;;;22.92;11.35;;;;;;;7.98;100.00;101574.94;5044426;28;20025;-72
2022/11/05 09:22:13;;;;;;;24.30;11.50;;;;;;;8.28;100.00;101569.59;5042746;28;20048;-69
2022/11/05 09:24:39;;;;;;;23.08;10.48;;;;;;;8.50;100.00;101570.16;5042919;28;20052;-71
2022/11/05 09:27:09;;;;;;;22.80;10.70;;;;;;;8.49;100.00;101579.81;5043768;28;20368;-74
2022/11/05 09:29:34;;;;;;;22.60;10.98;;;;;;;8.44;100.00;101570.88;5042486;28;20030;-74
2022/11/05 09:31:59;;;;;;;22.40;11.05;;;;;;;8.52;100.00;101579.00;5044115;28;20535;-73
2022/11/05 09:34:25;;;;;;;23.02;11.00;;;;;;;8.68;100.00;101567.97;5041240;28;20031;-74
2022/11/05 09:36:50;;;;;;;22.42;10.52;;;;;;;8.87;100.00;101578.94;5044756;28;20040;-73
2022/11/05 09:39:15;;;;;;;22.70;10.65;;;;;;;8.94;100.00;101570.31;5041904;28;20024;-73
2022/11/05 09:41:43;;;;;;;22.23;10.02;;;;;;;9.08;100.00;101582.03;5043180;28;20393;-73
2022/11/05 09:44:19;;;;;;;22.40;10.20;;;;;;;9.24;100.00;101585.03;5043338;28;20021;-73
2022/11/05 09:46:48;;;;;;;23.20;9.70;;;;;;;9.48;100.00;101583.75;5043535;28;20464;-73
2022/11/05 09:49:34;;;;;;;21.83;9.45;;;;;;;9.86;100.00;101587.19;5042054;28;20036;-66
2022/11/05 09:52:00;;;;;;;21.45;9.60;;;;;;;9.72;100.00;101583.38;5038198;28;20040;-72
2022/11/05 09:54:30;;;;;;;21.42;9.10;;;;;;;10.07;100.00;101594.59;5044358;28;20029;-74
2022/11/05 09:56:56;;;;;;;20.90;8.93;;;;;;;10.38;100.00;101592.56;5037540;28;20108;-73
2022/11/05 09:59:47;;;;;;;20.42;8.93;;;;;;;11.05;100.00;101589.16;5044039;28;20045;-71
2022/11/05 10:02:27;;;;;;;20.38;8.23;;;;;;;11.14;100.00;101599.00;5040321;28;20555;-72
2022/11/05 10:04:56;;;;;;;20.08;8.50;;;;;;;10.73;100.00;101596.63;5037109;28;20480;-73
2022/11/05 10:07:40;;;;;;;19.88;8.13;;;;;;;10.51;100.00;101590.09;5043852;28;20049;-71
2022/11/05 10:10:17;;;;;;;20.02;8.40;;;;;;;10.54;100.00;101601.63;5040212;28;20079;-67
2022/11/05 10:12:51;;;;;;;20.38;8.50;;;;;;;10.33;100.00;101596.81;5042181;28;20025;-72
2022/11/05 10:15:19;;;;;;;20.88;8.70;;;;;;;10.28;100.00;101609.97;5040572;28;20369;-67
2022/11/05 10:17:52;;;;;;;21.35;9.13;;;;;;;10.17;100.00;101610.63;5041450;28;20033;-69
2022/11/05 10:20:38;;;;;;;21.40;8.82;;;;;;;10.21;100.00;101617.75;5042915;28;20477;-72
2022/11/05 10:23:15;;;;;;;21.88;9.13;;;;;;;10.18;100.00;101621.22;5038369;28;20029;-69
2022/11/05 10:25:45;;;;;;;21.73;9.02;;;;;;;10.09;100.00;101614.03;5042213;28;20025;-68
2022/11/05 10:28:16;;;;;;;21.67;9.30;;;;;;;9.95;100.00;101624.31;5042341;28;20392;-70
2022/11/05 10:30:43;;;;;;;19.95;8.55;;;;;;;9.85;100.00;101624.13;5042171;28;20468;-69
2022/11/05 10:33:12;;;;;;;21.48;8.93;;;;;;;9.76;100.00;101630.09;5041727;28;20032;-71
2022/11/05 10:35:47;;;;;;;21.58;9.02;;;;;;;9.79;100.00;101637.22;5043091;28;20029;-67
2022/11/05 10:38:13;;;;;;;20.92;8.60;;;;;;;9.65;100.00;101632.50;5042927;28;20030;-72
2022/11/05 10:41:05;;;;;;;21.30;8.98;;;;;;;9.57;100.00;101635.00;5042473;28;20029;-70
2022/11/05 10:43:46;;;;;;;22.13;9.25;;;;;;;9.56;100.00;101629.69;5037526;28;20037;-69
2022/11/05 10:46:37;;;;;;;22.05;9.45;;;;;;;9.57;100.00;101616.53;5042033;28;20025;-70
2022/11/05 10:49:29;;;;;;;21.70;9.45;;;;;;;9.65;100.00;101627.22;5035768;28;20045;-69
2022/11/05 10:51:56;;;;;;;21.73;9.80;;;;;;;9.66;100.00;101620.22;5038305;28;20056;-73
2022/11/05 10:54:25;;;;;;;21.83;9.18;;;;;;;9.69;100.00;101613.25;5041265;28;20063;-70
2022/11/05 10:56:50;;;;;;;21.67;9.50;;;;;;;9.68;100.00;101606.16;5038635;28;20029;-70
2022/11/05 10:59:33;;;;;;;22.00;9.57;;;;;;;9.88;100.00;101621.53;5040492;28;20037;-68
2022/11/05 11:02:02;;;;;;;22.80;9.98;;;;;;;9.77;100.00;101611.66;5038405;28;20076;-67
2022/11/05 11:04:29;;;;;;;23.33;10.63;;;;;;;9.82;100.00;101617.03;5037978;28;20606;-72
2022/11/05 11:06:57;;;;;;;22.85;10.25;;;;;;;9.94;100.00;101614.59;5034052;28;20137;-73
2022/11/05 11:09:29;;;;;;;23.40;10.40;;;;;;;9.98;100.00;101615.56;5041559;28;20029;-72
2022/11/05 11:12:00;;;;;;;24.77;10.77;;;;;;;9.94;100.00;101622.53;5035156;28;20029;-73
2022/11/05 11:14:25;;;;;;;22.73;10.05;;;;;;;9.96;100.00;101609.38;5037480;28;20036;-73
2022/11/05 11:16:56;;;;;;;23.38;10.43;;;;;;;10.06;100.00;101618.34;5044766;28;20025;-72
2022/11/05 11:19:29;;;;;;;23.83;10.55;;;;;;;10.11;100.00;101609.66;5042084;28;20084;-73
2022/11/05 11:22:03;;;;;;;22.55;10.48;;;;;;;10.54;100.00;101608.66;5037661;28;20032;-72
2022/11/05 11:24:41;;;;;;;22.65;10.07;;;;;;;10.74;100.00;101601.94;5041547;28;20175;-71
2022/11/05 11:27:32;;;;;;;22.98;9.82;;;;;;;10.82;100.00;101605.59;5042305;28;20373;-73
2022/11/05 11:30:02;;;;;;;21.67;9.65;;;;;;;11.20;100.00;101600.81;5017861;28;20049;-73
2022/11/05 11:32:34;;;;;;;21.13;8.55;;;;;;;11.64;100.00;101611.13;5018091;28;20037;-72
2022/11/05 11:35:00;;;;;;;;;;;;;;;12.44;100.00;101596.09;5022230;28;20189;-73
2022/11/05 11:37:32;;;;;;;21.05;8.30;;;;;;;13.44;100.00;101606.50;5024801;28;20069;-71
2022/11/05 11:40:27;;;;;;;20.80;8.02;;;;;;;14.16;100.00;101600.50;5021309;28;20433;-74
2022/11/05 11:42:56;;;;;;;20.80;7.90;;;;;;;15.09;100.00;101595.19;5015869;28;20099;-74
2022/11/05 11:45:34;;;;;;;20.10;7.55;;;;;;;15.73;100.00;101594.06;5024350;28;20061;-74
2022/11/05 11:48:03;;;;;;;20.05;7.05;;;;;;;16.04;100.00;101599.25;5021340;28;20520;-74
2022/11/05 11:50:41;;;;;;;19.63;7.25;;;;;;;16.48;100.00;101605.16;5024630;28;20376;-74
2022/11/05 11:53:26;;;;;;;19.30;6.85;;;;;;;16.72;100.00;101599.59;5021969;28;20601;-74
2022/11/05 11:56:04;;;;;;;19.40;6.97;;;;;;;16.29;100.00;101601.75;5021445;28;20034;-74
2022/11/05 11:58:53;;;;;;;19.10;6.50;;;;;;;16.26;100.00;101589.31;5021123;28;20030;-74
2022/11/05 12:01:46;;;;;;;17.83;5.85;;;;;;;16.44;100.00;101590.06;5021611;28;20038;-71
2022/11/05 12:04:18;;;;;;;18.85;6.50;;;;;;;15.40;100.00;101585.31;5022613;28;20068;-73
2022/11/05 12:07:05;;;;;;;19.40;6.22;;;;;;;15.21;100.00;101584.50;5029114;28;20488;-74